Time;durP1;ratioP1;P1;durP2;ratioP2;P2;SDS_P1;SDS_P2;PMS_P1;PMS_P2;Temp;Humidity;BMP_temperature;BMP_pressure;BME280_temperature;BME280_humidity;BME280_pressure;Samples;Min_cycle;Max_cycle;Signal;HPM_P1;HPM_P2
2022/01/12 00:00:17;;;;;;;11.88;5.80;;;;;;;-4.69;89.45;99136.31;5021080;28;20056;-56
2022/01/12 00:02:44;;;;;;;13.05;7.45;;;;;;;-4.39;91.50;99140.34;5024826;28;20068;-56
2022/01/12 00:05:11;;;;;;;17.45;8.63;;;;;;;-4.57;88.73;99138.06;5025380;28;20041;-56
2022/01/12 00:07:38;;;;;;;11.63;6.00;;;;;;;-4.68;88.37;99137.16;5025347;28;20056;-57
2022/01/12 00:10:05;;;;;;;11.80;6.80;;;;;;;-4.68;89.33;99135.38;5025369;28;20046;-57
2022/01/12 00:12:31;;;;;;;14.68;7.18;;;;;;;-4.71;88.70;99135.59;5024559;28;20508;-57
2022/01/12 00:14:58;;;;;;;12.27;6.28;;;;;;;-4.64;89.53;99136.00;5025332;28;20045;-56
2022/01/12 00:17:25;;;;;;;12.43;7.07;;;;;;;-4.62;89.13;99142.84;5025668;28;20041;-57
2022/01/12 00:19:52;;;;;;;13.75;7.30;;;;;;;-4.47;88.93;99150.63;5028706;28;20091;-57
2022/01/12 00:22:18;;;;;;;12.25;7.15;;;;;;;-4.47;88.82;99150.63;5029032;28;20496;-55
2022/01/12 00:33:13;;;;;;;13.10;7.18;;;;;;;-4.75;89.43;99156.09;5027091;28;20753;-58
2022/01/12 00:35:45;;;;;;;17.70;8.52;;;;;;;-4.82;88.05;99146.94;5028566;28;20049;-58
2022/01/12 00:38:13;;;;;;;13.02;7.35;;;;;;;-5.10;88.68;99148.88;5027544;28;20046;-58
2022/01/12 00:40:45;;;;;;;12.52;6.07;;;;;;;-5.11;89.36;99150.69;5027564;28;20041;-58
2022/01/12 00:43:12;;;;;;;13.13;7.30;;;;;;;-4.97;90.15;99152.34;5028668;28;20045;-58
2022/01/12 00:45:42;;;;;;;14.13;7.65;;;;;;;-4.99;89.11;99151.63;5008398;28;20502;-57
2022/01/12 00:48:10;;;;;;;14.40;7.20;;;;;;;-5.24;89.09;99152.47;5020033;28;20107;-58
2022/01/12 00:50:37;;;;;;;13.32;7.03;;;;;;;-5.35;89.08;99148.78;5027362;28;20053;-58
2022/01/12 00:53:05;;;;;;;12.75;6.70;;;;;;;-5.22;90.34;99151.44;5028083;28;20049;-58
2022/01/12 00:55:32;;;;;;;13.35;6.65;;;;;;;-5.07;90.36;99148.66;5028376;28;20053;-57
2022/01/12 00:57:59;;;;;;;13.90;7.43;;;;;;;-5.02;89.46;99151.81;5023200;28;20133;-58
2022/01/12 01:00:27;;;;;;;15.90;7.75;;;;;;;-5.10;88.84;99151.50;5026280;28;20053;-55
2022/01/12 01:02:54;;;;;;;11.40;6.47;;;;;;;-5.17;89.05;99150.28;5027679;28;20416;-57
2022/01/12 01:05:23;;;;;;;13.27;6.95;;;;;;;-5.13;89.25;99160.50;5026662;28;20497;-57
2022/01/12 01:07:51;;;;;;;16.92;7.65;;;;;;;-5.20;88.78;99164.50;5027138;28;20205;-57
2022/01/12 01:10:30;;;;;;;13.70;6.97;;;;;;;-5.23;88.75;99162.09;5026530;28;20033;-57
2022/01/12 01:12:57;;;;;;;13.93;6.97;;;;;;;-5.06;89.48;99160.09;5026539;28;20156;-54
2022/01/12 01:15:51;;;;;;;15.10;8.05;;;;;;;-4.89;88.85;99149.19;5026453;28;20045;-56
2022/01/12 01:26:38;;;;;;;10.88;6.10;;;;;;;-5.21;89.02;99162.84;5026254;28;20037;-58
2022/01/12 01:29:04;;;;;;;12.20;6.45;;;;;;;-5.22;89.00;99169.06;5027051;28;20050;-58
2022/01/12 01:31:33;;;;;;;12.35;7.00;;;;;;;-5.24;89.81;99165.69;5026641;28;20706;-52
2022/01/12 01:34:10;;;;;;;13.40;7.65;;;;;;;-5.33;89.33;99164.53;5026720;28;20041;-58
2022/01/12 01:36:40;;;;;;;12.48;6.20;;;;;;;-5.24;89.92;99165.69;5026151;28;20052;-58
2022/01/12 01:39:09;;;;;;;15.45;7.45;;;;;;;-5.30;89.44;99158.19;5027589;28;20051;-58
2022/01/12 01:41:39;;;;;;;13.70;7.28;;;;;;;-5.32;89.43;99157.47;5047908;28;20103;-56
2022/01/12 01:55:04;;;;;;;12.32;6.65;;;;;;;-5.31;89.90;99159.16;5011551;28;20040;-58
2022/01/12 01:57:31;;;;;;;12.95;6.68;;;;;;;-5.31;89.49;99153.88;5026263;28;20054;-58
2022/01/12 01:59:59;;;;;;;11.52;5.57;;;;;;;-5.28;89.78;99162.41;5026207;28;20041;-58
2022/01/12 02:02:26;;;;;;;13.32;7.63;;;;;;;-4.88;91.85;99165.84;5026116;28;20136;-58
2022/01/12 02:04:53;;;;;;;15.70;6.60;;;;;;;-5.18;87.00;99169.69;5006282;28;20034;-58
2022/01/12 02:07:20;;;;;;;12.43;5.93;;;;;;;-5.41;87.02;99170.34;5017878;28;20048;-58
2022/01/12 02:09:50;;;;;;;14.23;6.35;;;;;;;-5.56;89.67;99187.22;5026393;28;20045;-56
2022/01/12 02:12:35;;;;;;;17.38;8.65;;;;;;;-5.56;89.38;99187.22;5008460;28;20061;-55
2022/01/12 02:15:11;;;;;;;12.35;6.03;;;;;;;-5.63;89.33;99184.97;5026017;28;20087;-56
2022/01/12 02:17:47;;;;;;;13.60;6.82;;;;;;;-5.63;89.16;99192.06;5025459;28;20041;-56
2022/01/12 02:35:08;;;;;;;13.32;6.90;;;;;;;-5.69;89.40;99185.41;5026246;28;20451;-54
2022/01/12 02:37:02;;;;;;;13.63;6.68;;;;;;;-5.82;89.92;99158.16;5026577;28;20041;-58
2022/01/12 02:42:17;;;;;;;16.15;7.22;;;;;;;-5.63;88.15;99160.41;5025847;28;20064;-58
2022/01/12 02:55:45;;;;;;;14.63;7.65;;;;;;;-5.16;90.72;99159.88;5019628;28;20038;-57
2022/01/12 02:58:12;;;;;;;12.65;7.35;;;;;;;-5.03;88.07;99167.78;5019786;28;20508;-58
2022/01/12 03:03:20;;;;;;;12.45;6.05;;;;;;;-5.83;87.43;99172.28;5024565;28;20140;-58
2022/01/12 03:05:56;;;;;;;17.00;7.35;;;;;;;-5.89;88.61;99168.28;5024874;28;20536;-57
2022/01/12 03:08:25;;;;;;;13.13;6.32;;;;;;;-6.02;89.13;99165.59;5024908;28;20065;-56
2022/01/12 03:10:53;;;;;;;12.38;6.07;;;;;;;-6.03;89.64;99163.94;5023555;28;20045;-58
2022/01/12 03:13:21;;;;;;;13.07;7.45;;;;;;;-6.02;89.25;99168.22;5025524;28;20033;-56
2022/01/12 03:15:49;;;;;;;10.48;6.53;;;;;;;-6.12;89.61;99157.47;5028909;28;20048;-57
2022/01/12 03:18:18;;;;;;;13.10;7.30;;;;;;;-6.05;90.48;99150.03;5023555;28;20694;-57
2022/01/12 03:20:45;;;;;;;14.18;7.68;;;;;;;-6.01;90.08;99160.22;5029011;28;20413;-56
2022/01/12 03:23:15;;;;;;;12.73;6.72;;;;;;;-6.09;89.47;99178.38;5025290;28;20049;-55
2022/01/12 03:25:42;;;;;;;14.00;7.28;;;;;;;-6.16;89.36;99185.84;5039055;28;20029;-57
2022/01/12 03:28:10;;;;;;;13.43;7.10;;;;;;;-6.28;88.80;99192.75;5038959;28;20087;-55
2022/01/12 03:30:55;;;;;;;9.88;5.90;;;;;;;-6.41;89.69;99189.22;5040133;28;20052;-57
2022/01/12 03:33:58;;;;;;;11.93;6.20;;;;;;;-6.38;90.02;99190.81;5024860;28;20497;-55
2022/01/12 03:39:09;;;;;;;13.75;6.70;;;;;;;-6.45;89.26;99178.00;5025971;28;20052;-54
2022/01/12 03:41:44;;;;;;;13.13;7.15;;;;;;;-6.45;90.36;99191.19;5022610;28;20041;-55
2022/01/12 03:44:13;;;;;;;17.38;6.78;;;;;;;-6.34;90.37;99187.03;5023347;28;20045;-56
2022/01/12 03:46:44;;;;;;;15.85;7.22;;;;;;;-6.22;89.47;99191.53;5025210;28;20068;-57
2022/01/12 03:49:15;;;;;;;13.20;6.68;;;;;;;-6.34;88.62;99195.78;5024392;28;20087;-58
2022/01/12 03:51:43;;;;;;;12.27;6.50;;;;;;;-6.29;89.65;99187.59;5034037;28;20049;-56
2022/01/12 03:54:10;;;;;;;13.93;7.18;;;;;;;-6.10;90.37;99197.78;5040467;28;20080;-56
2022/01/12 03:56:37;;;;;;;18.98;9.38;;;;;;;-5.92;89.75;99203.63;5028585;28;20045;-56
2022/01/12 03:59:05;;;;;;;12.63;6.78;;;;;;;-5.95;88.85;99209.09;5028273;28;20045;-57
2022/01/12 04:01:34;;;;;;;15.30;7.00;;;;;;;-6.01;88.89;99205.06;5028217;28;20536;-57
2022/01/12 04:04:07;;;;;;;11.70;6.68;;;;;;;-6.11;89.47;99205.78;5044157;28;20417;-56
2022/01/12 04:09:39;;;;;;;11.23;6.88;;;;;;;-5.84;88.56;99194.34;5029623;28;20041;-57
2022/01/12 04:12:07;;;;;;;11.63;6.32;;;;;;;-6.17;88.11;99194.69;5029155;28;20053;-57
2022/01/12 04:14:33;;;;;;;10.90;5.80;;;;;;;-6.30;89.33;99188.53;5027994;28;20149;-56
2022/01/12 04:17:00;;;;;;;19.10;6.80;;;;;;;-6.07;89.42;99178.28;5030096;28;20056;-56
2022/01/12 04:19:27;;;;;;;15.07;7.10;;;;;;;-5.87;90.09;99185.69;5027993;28;20042;-56
2022/01/12 04:21:54;;;;;;;12.88;6.85;;;;;;;-6.07;88.24;99184.41;5035314;28;20132;-58
2022/01/12 04:24:21;;;;;;;15.23;7.40;;;;;;;-6.20;88.44;99184.34;5039610;28;20137;-57
2022/01/12 04:26:47;;;;;;;12.30;6.25;;;;;;;-6.19;88.95;99182.56;5038068;28;20106;-57
2022/01/12 04:29:14;;;;;;;14.13;7.72;;;;;;;-6.20;89.46;99197.53;5039099;28;20074;-57
2022/01/12 04:31:41;;;;;;;17.40;8.63;;;;;;;-6.09;89.48;99203.91;5029015;28;20073;-58
2022/01/12 04:34:09;;;;;;;15.05;8.07;;;;;;;-6.26;89.07;99200.56;5026675;28;20606;-60
2022/01/12 04:36:36;;;;;;;10.55;6.30;;;;;;;-6.37;88.76;99198.63;5027464;28;20087;-58
2022/01/12 04:39:03;;;;;;;10.82;6.75;;;;;;;-6.20;89.74;99194.88;5028736;28;20144;-57
2022/01/12 04:41:30;;;;;;;18.00;7.50;;;;;;;-6.11;89.19;99206.66;5027507;28;20133;-57
2022/01/12 04:43:58;;;;;;;13.60;7.50;;;;;;;-6.32;88.27;99208.84;5026807;28;20571;-57
2022/01/12 04:47:15;;;;;;;11.65;6.25;;;;;;;-6.55;88.69;99221.72;5027505;28;20198;-57
2022/01/12 04:49:46;;;;;;;10.73;6.72;;;;;;;-6.54;89.33;99228.69;5029388;28;20044;-55
2022/01/12 04:52:06;;;;;;;11.60;6.75;;;;;;;-6.70;88.80;99231.44;5028348;28;20041;-56
2022/01/12 04:54:33;;;;;;;11.38;6.95;;;;;;;-6.73;89.45;99224.56;5027152;28;20045;-58
2022/01/12 04:57:00;;;;;;;14.77;6.88;;;;;;;-6.51;89.71;99230.28;5043729;28;20060;-55
2022/01/12 04:59:28;;;;;;;14.23;7.85;;;;;;;-6.34;89.74;99229.22;5027382;28;20050;-55
2022/01/12 05:02:08;;;;;;;14.48;7.30;;;;;;;-6.41;88.75;99226.94;5027577;28;20650;-58
2022/01/12 05:07:30;;;;;;;14.85;7.18;;;;;;;-6.39;88.79;99245.31;5027444;28;20046;-59
2022/01/12 05:12:55;;;;;;;11.15;6.05;;;;;;;-6.78;nan;99242.47;5038611;28;20527;-55
2022/01/12 05:15:28;;;;;;;10.80;6.15;;;;;;;-6.59;89.64;99250.06;5026352;28;20045;-57
2022/01/12 05:17:56;;;;;;;15.10;8.25;;;;;;;-6.55;89.01;99246.31;5041470;28;20048;-57
2022/01/12 05:20:24;;;;;;;12.43;6.40;;;;;;;-6.61;88.71;99251.94;5009592;28;20048;-55
2022/01/12 05:22:51;;;;;;;16.15;8.13;;;;;;;-6.27;91.78;99248.97;5026996;28;20064;-57
2022/01/12 05:25:18;;;;;;;19.90;10.25;;;;;;;-6.07;89.99;99254.75;5026392;28;20536;-56
2022/01/12 05:27:46;;;;;;;15.00;8.63;;;;;;;-6.02;88.27;99250.00;5025839;28;20184;-58
2022/01/12 05:30:14;;;;;;;14.18;7.80;;;;;;;-6.18;87.94;99256.31;5021477;28;20044;-54
2022/01/12 05:32:43;;;;;;;17.92;8.85;;;;;;;-6.21;88.54;99263.53;5020440;28;20069;-57
2022/01/12 05:35:12;;;;;;;17.42;10.35;;;;;;;-6.26;88.48;99274.41;5026149;28;20115;-58
2022/01/12 05:37:40;;;;;;;17.20;9.10;;;;;;;-6.45;88.72;99264.16;5026505;28;20059;-58
2022/01/12 05:40:08;;;;;;;14.43;8.07;;;;;;;-6.59;88.93;99254.47;5027561;28;20056;-58
2022/01/12 05:42:37;;;;;;;18.92;8.35;;;;;;;-6.44;88.99;99257.94;5026047;28;20076;-58
2022/01/12 05:45:08;;;;;;;11.57;6.80;;;;;;;-6.29;89.25;99248.22;5026063;28;20124;-57
2022/01/12 05:50:13;;;;;;;14.68;8.65;;;;;;;-5.70;90.60;99264.69;5026216;28;20041;-58
2022/01/12 05:52:40;;;;;;;14.77;8.13;;;;;;;-6.09;87.54;99265.41;5026235;28;20539;-57
2022/01/12 05:55:09;;;;;;;15.75;8.10;;;;;;;-6.68;87.40;99264.66;5025614;28;20064;-57
2022/01/12 05:57:36;;;;;;;12.38;7.38;;;;;;;-6.72;88.43;99273.69;5025371;28;20051;-58
2022/01/12 06:00:07;;;;;;;15.68;7.82;;;;;;;-6.57;89.88;99278.94;5042598;28;20060;-58
2022/01/12 06:02:40;;;;;;;16.73;9.23;;;;;;;-6.27;87.81;99284.09;5027883;28;20095;-57
2022/01/12 06:05:09;;;;;;;14.50;7.38;;;;;;;-6.56;87.34;99289.38;5024982;28;20033;-58
2022/01/12 06:07:36;;;;;;;16.77;8.45;;;;;;;-6.87;89.03;99293.91;5042391;28;20041;-57
2022/01/12 06:10:03;;;;;;;16.77;8.27;;;;;;;-6.79;90.40;99285.53;5027064;28;20102;-56
2022/01/12 06:12:30;;;;;;;17.55;9.10;;;;;;;-6.72;89.55;99284.22;5047466;28;20044;-57
2022/01/12 06:14:56;;;;;;;17.75;8.95;;;;;;;-6.26;90.22;99298.13;5040254;28;20030;-57
2022/01/12 06:17:23;;;;;;;22.85;10.57;;;;;;;-6.23;86.89;99297.91;5026794;28;20064;-57
2022/01/12 06:19:50;;;;;;;29.77;18.52;;;;;;;-6.80;88.42;99308.41;5012969;28;20637;-57
2022/01/12 06:22:31;;;;;;;37.92;21.80;;;;;;;-6.71;91.13;99314.06;5030908;28;20529;-56
2022/01/12 06:24:59;;;;;;;20.85;11.40;;;;;;;-6.50;91.06;99303.16;5039777;28;20041;-55
2022/01/12 06:27:30;;;;;;;21.75;10.05;;;;;;;-6.50;90.04;99295.25;5027329;28;20057;-55
2022/01/12 06:32:59;;;;;;;;;;;;;;;-6.47;88.92;99292.41;5024843;28;20065;-56
2022/01/12 06:35:26;;;;;;;19.67;10.90;;;;;;;-6.13;88.07;99290.28;5014615;28;20380;-57
2022/01/12 06:37:54;;;;;;;37.63;19.25;;;;;;;-6.42;86.44;99282.41;5024175;28;20138;-57
2022/01/12 06:40:22;;;;;;;17.85;9.05;;;;;;;-6.42;87.16;99266.59;5025520;28;20752;-57
2022/01/12 06:42:49;;;;;;;21.65;9.88;;;;;;;-6.12;89.13;99268.22;5025059;28;20041;-58
2022/01/12 06:45:15;;;;;;;17.65;10.27;;;;;;;-6.20;88.35;99263.44;5025209;28;20042;-57
2022/01/12 06:47:44;;;;;;;17.92;10.02;;;;;;;-6.29;88.81;99269.31;5025278;28;20042;-57
2022/01/12 06:50:14;;;;;;;26.10;12.88;;;;;;;-6.09;88.87;99281.22;5008970;28;20045;-58
2022/01/12 06:52:41;;;;;;;20.95;11.45;;;;;;;-6.05;88.06;99289.81;5024759;28;20049;-58
2022/01/12 06:55:08;;;;;;;19.98;10.57;;;;;;;-6.38;86.12;99286.53;5024170;28;20068;-58
2022/01/12 06:57:35;;;;;;;21.58;12.20;;;;;;;-6.70;87.15;99289.41;5024937;28;20136;-57
2022/01/12 07:00:04;;;;;;;19.05;9.35;;;;;;;-6.61;89.18;99285.34;5024972;28;20049;-58
2022/01/12 07:02:32;;;;;;;22.60;10.43;;;;;;;-6.57;88.82;99287.69;5027096;28;20503;-58
2022/01/12 07:04:59;;;;;;;22.13;10.57;;;;;;;-6.48;87.63;99302.13;5028435;28;20140;-58
2022/01/12 07:07:26;;;;;;;29.42;15.45;;;;;;;-6.70;87.58;99300.78;5020269;28;20053;-61
2022/01/12 07:09:57;;;;;;;21.45;11.77;;;;;;;-6.77;87.90;99298.59;5018792;28;20095;-63
2022/01/12 07:12:26;;;;;;;25.20;12.80;;;;;;;-6.97;88.47;99292.78;5038304;28;20059;-61
2022/01/12 07:14:53;;;;;;;20.52;11.45;;;;;;;-6.82;88.95;99293.63;5032423;28;20041;-61
2022/01/12 07:17:21;;;;;;;21.67;10.70;;;;;;;-6.69;90.58;99310.38;5021789;28;20064;-61
2022/01/12 07:19:47;;;;;;;22.00;11.00;;;;;;;-6.39;91.17;99305.94;5026090;28;20049;-61
2022/01/12 07:22:15;;;;;;;26.40;14.00;;;;;;;-6.63;87.29;99292.50;5026719;28;20594;-61
2022/01/12 07:24:41;;;;;;;17.13;9.30;;;;;;;-6.69;87.45;99299.00;5023091;28;20042;-63
2022/01/12 07:27:08;;;;;;;24.58;15.45;;;;;;;-6.80;89.28;99286.47;5027349;28;20049;-60
2022/01/12 07:29:35;;;;;;;28.13;15.10;;;;;;;-6.68;91.23;99291.00;5021919;28;20053;-61
2022/01/12 07:32:01;;;;;;;28.40;13.85;;;;;;;-6.53;90.65;99297.13;5022015;28;20053;-60
2022/01/12 07:34:28;;;;;;;25.13;13.68;;;;;;;-6.36;91.29;99295.22;5025374;28;20057;-61
2022/01/12 07:36:55;;;;;;;24.33;12.45;;;;;;;-6.12;91.22;99299.88;5031000;28;20048;-60
2022/01/12 07:39:21;;;;;;;24.27;13.27;;;;;;;-5.94;90.48;99316.28;5021650;28;20068;-60
2022/01/12 07:41:48;;;;;;;24.45;14.05;;;;;;;-5.88;87.88;99321.19;5037449;28;20057;-60
2022/01/12 07:44:14;;;;;;;25.48;13.88;;;;;;;-5.89;88.03;99337.94;5021923;28;20056;-60
2022/01/12 07:46:41;;;;;;;24.98;14.10;;;;;;;-5.72;88.06;99343.94;5023603;28;20042;-60
2022/01/12 07:49:08;;;;;;;25.20;14.73;;;;;;;-5.69;86.99;99356.09;5022592;28;20033;-61
2022/01/12 07:51:34;;;;;;;26.65;15.13;;;;;;;-5.56;87.01;99358.81;5025425;28;20072;-61
2022/01/12 07:54:01;;;;;;;23.27;14.48;;;;;;;-5.55;88.09;99366.63;5024245;28;20042;-61
2022/01/12 07:56:27;;;;;;;25.77;13.45;;;;;;;-5.64;86.00;99383.88;5019263;28;20065;-61
2022/01/12 07:58:54;;;;;;;22.00;13.05;;;;;;;-5.63;86.53;99392.66;5021551;28;20044;-61
2022/01/12 08:01:22;;;;;;;24.15;13.07;;;;;;;-5.72;86.83;99394.09;5023845;28;20048;-60
2022/01/12 08:03:50;;;;;;;219.25;86.53;;;;;;;-5.89;87.52;99396.00;5022093;28;20049;-61
2022/01/12 08:06:17;;;;;;;47.40;21.52;;;;;;;-5.88;88.18;99402.13;5023453;28;20042;-61
2022/01/12 08:08:44;;;;;;;31.27;16.02;;;;;;;-5.94;88.31;99400.72;5022776;28;20053;-60
2022/01/12 08:11:10;;;;;;;29.48;13.55;;;;;;;-5.92;88.65;99388.28;5033711;28;20041;-61
2022/01/12 08:13:37;;;;;;;25.27;14.65;;;;;;;-5.73;88.88;99392.41;5038153;28;20413;-61
2022/01/12 08:16:04;;;;;;;26.17;13.90;;;;;;;-5.68;89.05;99386.84;5021840;28;20041;-61
2022/01/12 08:18:31;;;;;;;27.52;14.90;;;;;;;-5.54;88.79;99391.22;5019554;28;20045;-61
2022/01/12 08:20:57;;;;;;;25.67;15.65;;;;;;;-5.22;90.71;99396.22;5023770;28;20484;-61
2022/01/12 08:23:24;;;;;;;25.85;14.90;;;;;;;-4.99;86.90;99404.41;5020587;28;20054;-61
2022/01/12 08:25:51;;;;;;;28.02;13.30;;;;;;;-5.19;87.05;99398.66;5014741;28;20044;-61
2022/01/12 08:28:17;;;;;;;22.40;14.05;;;;;;;-5.36;87.69;99397.09;5013196;28;20053;-61
2022/01/12 08:30:44;;;;;;;24.70;12.80;;;;;;;-4.93;90.45;99406.66;5018017;28;20042;-61
2022/01/12 08:33:11;;;;;;;26.70;14.82;;;;;;;-4.95;87.68;99403.25;5015030;28;20049;-61
2022/01/12 08:35:37;;;;;;;23.40;13.38;;;;;;;-5.14;87.32;99398.34;5015499;28;20049;-61
2022/01/12 08:38:04;;;;;;;24.75;12.98;;;;;;;-5.27;88.05;99396.50;5017356;28;20037;-61
2022/01/12 08:40:30;;;;;;;29.60;15.50;;;;;;;-5.28;89.34;99388.66;5018911;28;20056;-61
2022/01/12 08:42:57;;;;;;;54.83;28.70;;;;;;;-4.88;89.73;99403.69;5030393;28;20057;-61
2022/01/12 08:45:24;;;;;;;25.38;14.30;;;;;;;-4.74;89.45;99408.06;5025494;28;20749;-61
2022/01/12 08:47:51;;;;;;;35.35;18.10;;;;;;;-4.69;87.49;99403.31;5044467;28;20045;-61
2022/01/12 08:50:17;;;;;;;91.40;52.92;;;;;;;-4.70;87.20;99396.31;5026647;28;20045;-62
2022/01/12 08:52:47;;;;;;;26.65;14.30;;;;;;;-4.79;87.56;99381.94;5027354;28;20132;-61
2022/01/12 08:55:17;;;;;;;26.42;15.30;;;;;;;-4.59;89.99;99379.72;5034074;28;20041;-61
2022/01/12 08:57:43;;;;;;;34.38;19.80;;;;;;;-4.36;87.77;99388.72;5021160;28;20045;-61
2022/01/12 09:00:11;;;;;;;29.10;17.30;;;;;;;-4.21;88.33;99396.53;5043598;28;20579;-61
2022/01/12 09:02:38;;;;;;;25.48;14.32;;;;;;;-4.10;87.59;99407.22;5034017;28;20037;-61
2022/01/12 09:05:06;;;;;;;31.17;16.35;;;;;;;-3.82;86.13;99400.00;5036928;28;20107;-60
2022/01/12 09:07:34;;;;;;;24.33;14.27;;;;;;;-3.82;85.49;99397.38;5025474;28;20050;-61
2022/01/12 09:10:01;;;;;;;26.95;15.68;;;;;;;-3.75;85.52;99402.19;5028388;28;20037;-61
2022/01/12 09:12:28;;;;;;;24.65;13.70;;;;;;;-3.64;85.21;99412.88;5037532;28;20059;-61
2022/01/12 09:14:54;;;;;;;22.58;12.82;;;;;;;-3.47;84.25;99418.78;5011070;28;20041;-61
2022/01/12 09:17:23;;;;;;;20.55;11.55;;;;;;;-3.32;83.76;99430.06;5026439;28;20060;-61
2022/01/12 09:19:52;;;;;;;19.05;11.30;;;;;;;-3.22;83.21;99439.00;5028309;28;20049;-61
2022/01/12 09:22:19;;;;;;;19.05;11.77;;;;;;;-3.08;82.56;99450.41;5024738;28;20048;-61
2022/01/12 09:24:46;;;;;;;24.83;14.25;;;;;;;-3.00;81.95;99445.38;5025611;28;20474;-61
2022/01/12 09:27:14;;;;;;;25.35;14.48;;;;;;;-2.92;82.54;99439.50;5036785;28;20409;-61
2022/01/12 09:29:41;;;;;;;22.13;12.35;;;;;;;-2.94;83.85;99418.44;5042520;28;20420;-62
2022/01/12 09:32:09;;;;;;;21.42;11.88;;;;;;;-2.84;82.17;99428.34;5032190;28;20056;-62
2022/01/12 09:34:36;;;;;;;18.83;10.77;;;;;;;-2.68;81.16;99434.19;5031815;28;20052;-62
2022/01/12 09:37:03;;;;;;;23.08;12.75;;;;;;;-2.55;81.02;99427.97;5030246;28;20052;-62
2022/01/12 09:39:31;;;;;;;19.40;11.57;;;;;;;-2.53;81.01;99431.34;5025989;28;20052;-62
2022/01/12 09:41:58;;;;;;;18.52;10.27;;;;;;;-2.64;80.15;99446.28;5013025;28;20513;-61
2022/01/12 09:44:29;;;;;;;16.23;9.70;;;;;;;-2.61;79.86;99443.38;5014336;28;20493;-65
2022/01/12 09:46:59;;;;;;;18.83;10.63;;;;;;;-2.53;79.90;99442.81;5019045;28;20421;-62
2022/01/12 09:49:25;;;;;;;18.52;10.73;;;;;;;-2.32;79.57;99454.56;5028158;28;20792;-61
2022/01/12 09:51:52;;;;;;;16.55;9.88;;;;;;;-2.26;79.95;99468.19;5031817;28;20042;-61
2022/01/12 09:54:19;;;;;;;16.98;11.27;;;;;;;-2.15;79.76;99461.19;5019837;28;20041;-61
2022/01/12 09:56:47;;;;;;;17.67;10.55;;;;;;;-2.24;79.08;99474.22;5016794;28;20049;-61
2022/01/12 09:59:14;;;;;;;17.23;9.90;;;;;;;-2.11;78.67;99468.81;5023409;28;20584;-61
2022/01/12 10:01:45;;;;;;;17.40;11.15;;;;;;;-2.05;79.13;99466.66;5022422;28;20568;-62
2022/01/12 10:04:16;;;;;;;22.10;10.18;;;;;;;-2.00;78.32;99470.66;5025947;28;20524;-62
2022/01/12 10:06:46;;;;;;;18.90;11.15;;;;;;;-1.94;77.84;99457.84;5024512;28;20074;-63
2022/01/12 10:09:14;;;;;;;17.65;10.30;;;;;;;-1.89;77.91;99467.16;5024960;28;20041;-62
2022/01/12 10:11:58;;;;;;;16.65;11.10;;;;;;;-1.80;77.99;99473.56;5034453;28;20057;-61
2022/01/12 10:14:38;;;;;;;17.60;10.68;;;;;;;-1.72;78.39;99470.31;5023976;28;20919;-62
2022/01/12 10:17:04;;;;;;;17.20;9.88;;;;;;;-1.77;77.27;99469.81;5025133;28;20049;-61
2022/01/12 10:19:33;;;;;;;18.48;9.85;;;;;;;-1.71;76.08;99464.88;5038978;28;20058;-61
2022/01/12 10:22:04;;;;;;;15.05;9.73;;;;;;;-1.74;76.57;99464.25;5045456;28;20048;-61
2022/01/12 10:24:30;;;;;;;17.52;11.18;;;;;;;-1.90;77.56;99460.16;5028329;28;20046;-61
2022/01/12 10:26:57;;;;;;;15.40;9.82;;;;;;;-1.84;77.66;99467.63;5024834;28;20037;-62
2022/01/12 10:29:28;;;;;;;16.58;10.05;;;;;;;-1.66;75.75;99471.63;5022238;28;20041;-61
2022/01/12 10:31:58;;;;;;;19.33;10.93;;;;;;;-1.55;76.60;99473.44;5028797;28;20073;-62
2022/01/12 10:34:28;;;;;;;16.27;9.15;;;;;;;-1.53;76.29;99476.81;5038629;28;20042;-62
2022/01/12 10:36:57;;;;;;;13.93;9.02;;;;;;;-1.48;74.93;99474.63;5024268;28;20052;-62
2022/01/12 10:39:26;;;;;;;15.32;8.95;;;;;;;-1.47;75.07;99476.34;5024055;28;20041;-62
2022/01/12 10:42:04;;;;;;;13.23;8.32;;;;;;;-1.51;74.95;99490.84;5021171;28;20041;-60
2022/01/12 10:44:34;;;;;;;15.82;8.57;;;;;;;-1.47;75.18;99479.00;5020830;28;20140;-60
2022/01/12 10:47:24;;;;;;;17.00;9.60;;;;;;;-1.41;74.63;99483.81;5039178;28;20539;-61
2022/01/12 10:50:00;;;;;;;17.23;9.38;;;;;;;-1.45;74.68;99477.91;5042154;28;20037;-62
2022/01/12 10:52:37;;;;;;;15.18;8.35;;;;;;;-1.48;74.99;99490.56;5031413;28;20052;-62
2022/01/12 10:55:09;;;;;;;15.13;8.80;;;;;;;-1.38;74.57;99486.22;5023272;28;20052;-62
2022/01/12 10:57:39;;;;;;;15.18;8.63;;;;;;;-1.23;74.65;99484.16;5024806;28;20042;-61
2022/01/12 11:00:20;;;;;;;18.27;9.20;;;;;;;-1.19;73.93;99480.28;5024939;28;20041;-61
2022/01/12 11:02:52;;;;;;;14.20;8.27;;;;;;;-1.20;73.76;99472.44;5015528;28;20048;-62
2022/01/12 11:05:21;;;;;;;16.60;8.77;;;;;;;-1.07;73.37;99467.78;5023535;28;20107;-62
2022/01/12 11:07:49;;;;;;;16.15;9.10;;;;;;;-1.09;72.77;99474.22;5021755;28;20057;-60
2022/01/12 11:10:16;;;;;;;15.75;8.38;;;;;;;-1.15;73.50;99472.06;5021169;28;20045;-61
2022/01/12 11:12:44;;;;;;;18.70;9.00;;;;;;;-1.13;73.24;99470.09;5023019;28;20042;-61
2022/01/12 11:15:14;;;;;;;14.45;9.65;;;;;;;-1.14;73.26;99463.94;5022645;28;20050;-60
2022/01/12 11:17:42;;;;;;;13.27;9.00;;;;;;;-1.10;72.86;99460.06;5021787;28;20038;-61
2022/01/12 11:20:25;;;;;;;18.15;9.27;;;;;;;-1.09;73.50;99468.91;5022663;28;20053;-62
2022/01/12 11:23:00;;;;;;;17.17;9.35;;;;;;;-1.09;72.87;99475.06;5023444;28;20045;-61
2022/01/12 11:25:30;;;;;;;16.15;9.05;;;;;;;-1.14;73.22;99463.13;5023731;28;20045;-59
2022/01/12 11:28:06;;;;;;;16.17;9.40;;;;;;;-1.10;72.92;99465.38;5021798;28;20057;-60
2022/01/12 11:30:33;;;;;;;14.07;9.02;;;;;;;-1.10;74.19;99445.94;5017797;28;20045;-60
2022/01/12 11:33:07;;;;;;;14.25;9.80;;;;;;;-1.04;74.43;99437.44;5021265;28;20424;-61
2022/01/12 11:35:39;;;;;;;15.05;8.20;;;;;;;-0.88;73.53;99438.84;5021704;28;20160;-62
2022/01/12 11:38:06;;;;;;;16.15;9.77;;;;;;;-0.86;72.67;99436.91;5026907;28;20057;-61
2022/01/12 11:40:39;;;;;;;14.02;8.75;;;;;;;-0.77;72.66;99433.50;5029720;28;20664;-61
2022/01/12 11:43:50;;;;;;;19.38;9.98;;;;;;;-0.80;73.22;99426.59;5028655;28;20132;-62
2022/01/12 11:46:25;;;;;;;13.38;8.05;;;;;;;-0.85;72.43;99412.84;5028052;28;20100;-61
2022/01/12 11:48:53;;;;;;;15.35;9.23;;;;;;;-0.84;72.77;99401.25;5021090;28;20048;-61
2022/01/12 11:51:34;;;;;;;13.57;8.18;;;;;;;-0.85;72.59;99401.38;5016777;28;20044;-61
2022/01/12 11:54:09;;;;;;;15.05;7.68;;;;;;;-0.84;71.99;99398.59;5035503;28;20060;-61
2022/01/12 11:56:37;;;;;;;12.40;7.78;;;;;;;-0.73;72.18;99394.16;5005964;28;20046;-61
2022/01/12 11:59:12;;;;;;;13.40;8.23;;;;;;;-0.76;71.40;99392.63;5028395;28;20052;-61
2022/01/12 12:01:48;;;;;;;13.13;7.70;;;;;;;-0.67;71.30;99386.50;5035019;28;20061;-62
2022/01/12 12:04:28;;;;;;;12.20;6.85;;;;;;;-0.57;71.17;99385.72;5023461;28;20107;-64
2022/01/12 12:07:23;;;;;;;13.35;8.10;;;;;;;-0.59;71.38;99391.19;5018946;28;20516;-60
2022/01/12 12:09:57;;;;;;;13.18;7.90;;;;;;;-0.61;72.07;99392.28;5018625;28;20069;-63
2022/01/12 12:12:32;;;;;;;15.10;8.50;;;;;;;-0.61;71.55;99393.13;5043360;28;20045;-61
2022/01/12 12:15:00;;;;;;;14.43;7.60;;;;;;;-0.60;71.45;99400.16;5047108;28;20045;-61
2022/01/12 12:17:29;;;;;;;12.13;7.93;;;;;;;-0.68;71.18;99392.81;5034896;28;20564;-60
2022/01/12 12:19:57;;;;;;;14.32;8.00;;;;;;;-0.61;71.47;99397.59;5027777;28;20509;-63
2022/01/12 12:22:37;;;;;;;15.05;8.85;;;;;;;-0.72;72.09;99391.38;5029594;28;20037;-60
2022/01/12 12:25:09;;;;;;;13.43;8.50;;;;;;;-0.69;71.07;99391.13;5021946;28;20049;-62
2022/01/12 12:27:40;;;;;;;13.32;8.77;;;;;;;-0.76;71.45;99392.63;5026724;28;20041;-61
2022/01/12 12:30:10;;;;;;;13.95;8.13;;;;;;;-0.64;71.42;99389.88;5026735;28;20037;-62
2022/01/12 12:32:43;;;;;;;15.07;8.40;;;;;;;-0.58;71.27;99390.22;5027351;28;20539;-60
2022/01/12 12:35:13;;;;;;;19.17;9.55;;;;;;;-0.58;70.94;99384.06;5031326;28;20036;-61
2022/01/12 12:37:42;;;;;;;15.98;9.25;;;;;;;-0.58;71.42;99392.03;5027029;28;20515;-60
2022/01/12 12:40:19;;;;;;;17.65;10.68;;;;;;;-0.54;71.86;99385.47;5026420;28;20045;-60
2022/01/12 12:43:16;;;;;;;21.02;11.90;;;;;;;-0.53;72.92;99388.00;5023154;28;20073;-61
2022/01/12 12:45:48;;;;;;;16.83;11.25;;;;;;;-0.41;71.86;99393.25;5024304;28;20784;-60
2022/01/12 12:48:17;;;;;;;26.98;12.00;;;;;;;-0.40;72.24;99389.63;5018483;28;20037;-60